Time;durP1;ratioP1;P1;durP2;ratioP2;P2;SDS_P1;SDS_P2;PMS_P1;PMS_P2;Temp;Humidity;BMP_temperature;BMP_pressure;BME280_temperature;BME280_humidity;BME280_pressure;Samples;Min_cycle;Max_cycle;Signal;HPM_P1;HPM_P2
2022/04/17 00:02:11;;;;;;;16.20;12.25;;;8.60;66.90;;;;;;5026458;28;20033;-76
2022/04/17 00:04:37;;;;;;;14.27;12.13;;;8.60;67.00;;;;;;5028387;28;20124;-76
2022/04/17 00:07:03;;;;;;;14.32;10.85;;;8.60;67.60;;;;;;5011767;28;20138;-76
2022/04/17 00:09:28;;;;;;;13.18;10.40;;;8.50;67.70;;;;;;5028117;28;20049;-76
2022/04/17 00:11:54;;;;;;;14.57;11.13;;;8.50;67.50;;;;;;5027486;28;20053;-77
2022/04/17 00:14:20;;;;;;;12.93;9.57;;;8.50;68.00;;;;;;5012955;28;20053;-76
2022/04/17 00:16:45;;;;;;;12.18;9.73;;;8.50;68.00;;;;;;5015133;28;20127;-75
2022/04/17 00:19:11;;;;;;;11.95;9.57;;;8.50;68.40;;;;;;5029496;28;20542;-75
2022/04/17 00:21:38;;;;;;;11.60;9.82;;;8.50;69.10;;;;;;5029661;28;20041;-75
2022/04/17 00:24:04;;;;;;;12.18;9.23;;;8.50;69.10;;;;;;5019668;28;20052;-75
2022/04/17 00:26:30;;;;;;;11.97;9.27;;;8.50;69.70;;;;;;5010802;28;20041;-75
2022/04/17 00:28:57;;;;;;;11.23;9.18;;;8.40;70.60;;;;;;5027923;28;20322;-75
2022/04/17 00:31:23;;;;;;;13.70;9.20;;;8.40;70.90;;;;;;5007262;28;20045;-75
2022/04/17 00:33:49;;;;;;;12.60;9.18;;;8.40;71.10;;;;;;5027152;28;20056;-75
2022/04/17 00:36:14;;;;;;;10.75;8.63;;;8.30;71.30;;;;;;5024859;28;20041;-75
2022/04/17 00:38:40;;;;;;;10.32;8.80;;;8.40;71.40;;;;;;5029038;28;20447;-75
2022/04/17 00:41:06;;;;;;;11.52;8.73;;;8.30;71.60;;;;;;5026905;28;20041;-76
2022/04/17 00:43:34;;;;;;;11.68;9.10;;;8.30;72.40;;;;;;5008708;28;20034;-75
2022/04/17 00:46:00;;;;;;;10.90;9.25;;;8.30;72.60;;;;;;5010973;28;20045;-75
2022/04/17 00:48:26;;;;;;;10.68;8.68;;;8.30;72.90;;;;;;5025840;28;20568;-75
2022/04/17 00:50:55;;;;;;;12.15;9.20;;;8.20;73.20;;;;;;5005507;28;20056;-75
2022/04/17 00:53:22;;;;;;;11.07;8.93;;;8.20;73.80;;;;;;5006868;28;20037;-76
2022/04/17 00:55:48;;;;;;;11.35;8.65;;;8.10;74.80;;;;;;5009913;28;20566;-75
2022/04/17 00:58:14;;;;;;;12.25;9.18;;;8.10;75.50;;;;;;5007813;28;20077;-75
2022/04/17 01:00:45;;;;;;;10.40;8.43;;;8.10;75.90;;;;;;5026298;28;20084;-75
2022/04/17 01:03:12;;;;;;;11.57;9.07;;;8.00;76.60;;;;;;5026986;28;20053;-75
2022/04/17 01:05:42;;;;;;;12.10;8.82;;;8.00;76.50;;;;;;5007911;28;20099;-75
2022/04/17 01:08:11;;;;;;;10.63;8.77;;;8.00;76.50;;;;;;5028209;28;20049;-75
2022/04/17 01:10:40;;;;;;;11.50;8.70;;;8.00;76.70;;;;;;5007260;28;20052;-75
2022/04/17 01:13:09;;;;;;;11.02;8.90;;;8.00;77.40;;;;;;5029484;28;20071;-75
2022/04/17 01:15:36;;;;;;;12.50;8.65;;;8.00;77.20;;;;;;5025360;28;20057;-75
2022/04/17 01:18:03;;;;;;;12.23;9.40;;;8.00;77.50;;;;;;5026757;28;20044;-76
2022/04/17 01:20:29;;;;;;;12.70;8.75;;;7.90;78.30;;;;;;5023189;28;20045;-76
2022/04/17 01:26:56;;;;;;;11.70;9.35;;;7.80;78.70;;;;;;5028324;28;20033;-76
2022/04/17 01:28:26;;;;;;;13.27;9.63;;;7.80;79.00;;;;;;5008644;28;20128;-76
2022/04/17 01:30:56;;;;;;;11.27;9.23;;;7.80;79.70;;;;;;5029069;28;20467;-77
2022/04/17 01:33:23;;;;;;;11.95;9.07;;;7.80;81.00;;;;;;5024150;28;20080;-76
2022/04/17 01:35:49;;;;;;;11.73;9.32;;;7.70;80.60;;;;;;5027186;28;20060;-76
2022/04/17 01:38:15;;;;;;;13.10;10.15;;;7.70;81.20;;;;;;5027633;28;20041;-76
2022/04/17 01:40:41;;;;;;;12.80;9.82;;;7.70;81.30;;;;;;5022033;28;20053;-76
2022/04/17 01:43:11;;;;;;;12.38;9.52;;;7.70;81.70;;;;;;5022280;28;20045;-76
2022/04/17 01:45:37;;;;;;;11.18;9.85;;;7.60;81.60;;;;;;5030735;28;20107;-76
2022/04/17 01:48:03;;;;;;;12.02;9.55;;;7.60;82.10;;;;;;5026675;28;20049;-76
2022/04/17 01:50:30;;;;;;;11.10;8.95;;;7.60;82.50;;;;;;5024024;28;20611;-76
2022/04/17 01:52:59;;;;;;;13.57;9.55;;;7.50;83.90;;;;;;5026324;28;20132;-76
2022/04/17 01:55:25;;;;;;;11.57;8.57;;;7.50;84.50;;;;;;5026911;28;20465;-76
2022/04/17 01:57:51;;;;;;;12.60;9.73;;;7.40;83.80;;;;;;5026428;28;20056;-76
2022/04/17 02:00:17;;;;;;;12.30;9.77;;;7.50;83.50;;;;;;5026320;28;20045;-76
2022/04/17 02:02:43;;;;;;;11.48;9.77;;;7.40;84.30;;;;;;5009775;28;20045;-76
2022/04/17 02:05:09;;;;;;;12.57;9.75;;;7.40;84.60;;;;;;5008643;28;20041;-76
2022/04/17 02:07:36;;;;;;;12.45;9.88;;;7.40;85.20;;;;;;5022118;28;20038;-76
2022/04/17 02:10:04;;;;;;;11.18;9.32;;;7.40;86.70;;;;;;5004632;28;20057;-76
2022/04/17 02:12:29;;;;;;;12.63;10.25;;;7.30;86.60;;;;;;5027404;28;20101;-76
2022/04/17 02:14:56;;;;;;;12.88;10.15;;;7.30;86.50;;;;;;5003633;28;20057;-76
2022/04/17 02:17:21;;;;;;;12.23;9.77;;;7.20;88.20;;;;;;5008581;28;20045;-76
2022/04/17 02:19:47;;;;;;;13.55;10.73;;;7.20;88.70;;;;;;5009252;28;20052;-76
2022/04/17 02:22:13;;;;;;;12.68;10.35;;;7.20;88.70;;;;;;5007015;28;20056;-76
2022/04/17 02:24:38;;;;;;;12.75;10.07;;;7.20;89.00;;;;;;5025378;28;20049;-76
2022/04/17 02:27:07;;;;;;;13.38;10.32;;;7.10;89.30;;;;;;5028427;28;20673;-76
2022/04/17 02:29:33;;;;;;;11.60;10.10;;;7.10;89.20;;;;;;5007775;28;20049;-76
2022/04/17 02:31:59;;;;;;;15.18;10.40;;;7.10;89.70;;;;;;5026066;28;20060;-76
2022/04/17 02:34:24;;;;;;;12.63;10.43;;;7.00;90.50;;;;;;5004595;28;20042;-76
2022/04/17 02:36:50;;;;;;;13.18;9.80;;;7.00;90.90;;;;;;5028434;28;20174;-76
2022/04/17 02:39:16;;;;;;;13.32;9.90;;;7.00;91.40;;;;;;5006139;28;20056;-76
2022/04/17 02:41:41;;;;;;;14.27;10.23;;;7.00;91.50;;;;;;5025386;28;20045;-76
2022/04/17 02:44:07;;;;;;;14.15;10.43;;;7.00;91.20;;;;;;5025128;28;20049;-76
2022/04/17 02:49:17;;;;;;;11.77;10.02;;;7.00;91.10;;;;;;5007866;28;20072;-76
2022/04/17 02:51:42;;;;;;;13.55;10.18;;;6.90;92.20;;;;;;5009301;28;20099;-76
2022/04/17 02:54:09;;;;;;;12.65;10.82;;;6.90;92.10;;;;;;5023807;28;20065;-76
2022/04/17 02:56:34;;;;;;;12.38;10.18;;;6.90;92.70;;;;;;5027405;28;20077;-76
2022/04/17 02:59:03;;;;;;;13.23;10.43;;;6.90;92.80;;;;;;5015222;28;20047;-76
2022/04/17 03:07:00;;;;;;;11.25;9.73;;;6.70;93.50;;;;;;5020956;28;20053;-76
2022/04/17 03:09:25;;;;;;;12.50;9.93;;;6.70;93.60;;;;;;5020168;28;20511;-75
2022/04/17 03:11:51;;;;;;;11.75;9.90;;;6.70;93.60;;;;;;5028088;28;20123;-76
2022/04/17 03:14:16;;;;;;;13.00;10.60;;;6.70;94.00;;;;;;5026607;28;20046;-76
2022/04/17 03:16:42;;;;;;;14.45;10.38;;;6.60;94.80;;;;;;5024247;28;20049;-76
2022/04/17 03:19:08;;;;;;;11.75;9.23;;;6.50;95.80;;;;;;5025377;28;20053;-76
2022/04/17 03:21:33;;;;;;;13.73;10.00;;;6.40;96.20;;;;;;5026359;28;20049;-76
2022/04/17 03:23:59;;;;;;;11.18;9.82;;;6.30;96.40;;;;;;5008858;28;20045;-76
2022/04/17 03:26:25;;;;;;;12.63;9.75;;;6.20;97.30;;;;;;5009926;28;20128;-76
2022/04/17 03:28:54;;;;;;;12.05;10.05;;;6.10;97.70;;;;;;5026159;28;20168;-76
2022/04/17 03:31:20;;;;;;;12.80;10.57;;;6.00;98.30;;;;;;5022015;28;20076;-76
2022/04/17 03:33:45;;;;;;;13.00;10.18;;;6.00;99.00;;;;;;5026819;28;20081;-76
2022/04/17 03:36:12;;;;;;;12.93;9.80;;;6.00;99.40;;;;;;5028036;28;20044;-76
2022/04/17 03:38:38;;;;;;;16.03;10.70;;;6.00;99.50;;;;;;5030530;28;20148;-76
2022/04/17 03:41:03;;;;;;;12.32;10.43;;;6.00;99.90;;;;;;5029859;28;20129;-76
2022/04/17 03:43:29;;;;;;;12.80;10.05;;;5.90;99.90;;;;;;5029320;28;20076;-76
2022/04/17 03:45:54;;;;;;;14.88;10.70;;;5.90;99.90;;;;;;5032783;28;20045;-76
2022/04/17 03:48:20;;;;;;;13.80;10.65;;;5.80;99.90;;;;;;5009520;28;20140;-76
2022/04/17 03:50:47;;;;;;;14.23;10.18;;;5.70;99.90;;;;;;5007449;28;20057;-76
2022/04/17 03:53:13;;;;;;;14.23;10.95;;;5.70;99.90;;;;;;5009959;28;20428;-76
2022/04/17 03:55:39;;;;;;;11.70;10.32;;;5.60;99.90;;;;;;5028407;28;20512;-75
2022/04/17 03:58:05;;;;;;;15.13;10.77;;;5.60;99.90;;;;;;5029611;28;20033;-75
2022/04/17 04:00:30;;;;;;;11.93;10.57;;;5.50;99.90;;;;;;5026274;28;20047;-75
2022/04/17 04:02:56;;;;;;;13.27;11.05;;;5.50;99.90;;;;;;5029848;28;20049;-76
2022/04/17 04:05:22;;;;;;;13.95;11.00;;;5.60;99.90;;;;;;5027345;28;20038;-75
2022/04/17 04:07:48;;;;;;;14.73;11.07;;;5.60;99.90;;;;;;5008471;28;20116;-75
2022/04/17 04:10:14;;;;;;;14.68;10.75;;;5.60;99.90;;;;;;5030499;28;20049;-75
2022/04/17 04:12:39;;;;;;;15.23;11.85;;;5.50;99.90;;;;;;5011841;28;20103;-75
2022/04/17 04:15:06;;;;;;;12.73;11.10;;;5.50;99.90;;;;;;5010050;28;20076;-75
2022/04/17 04:17:32;;;;;;;17.35;11.50;;;5.40;99.90;;;;;;5016456;28;20041;-75
2022/04/17 04:19:58;;;;;;;14.90;11.40;;;5.40;99.90;;;;;;5028035;28;20400;-75
2022/04/17 04:22:24;;;;;;;14.38;11.13;;;5.30;99.90;;;;;;5005736;28;20057;-75
2022/04/17 04:24:49;;;;;;;12.80;11.10;;;5.30;99.90;;;;;;5029648;28;20053;-75
2022/04/17 04:29:59;;;;;;;14.60;10.77;;;5.20;99.90;;;;;;5027948;28;20076;-76
2022/04/17 04:32:25;;;;;;;12.85;10.43;;;5.20;99.90;;;;;;5026999;28;20081;-76
2022/04/17 04:34:51;;;;;;;13.80;11.50;;;5.20;99.90;;;;;;5022852;28;20037;-76
2022/04/17 04:37:16;;;;;;;14.23;10.85;;;5.10;99.90;;;;;;5006462;28;20061;-76
2022/04/17 04:39:42;;;;;;;15.00;11.52;;;5.20;99.90;;;;;;5029253;28;20539;-76
2022/04/17 04:42:08;;;;;;;15.13;11.07;;;5.20;99.90;;;;;;5010764;28;20037;-76
2022/04/17 04:44:34;;;;;;;15.77;11.70;;;5.20;99.90;;;;;;5028356;28;20113;-76
2022/04/17 04:46:59;;;;;;;13.02;11.65;;;5.10;99.90;;;;;;5008960;28;20129;-76
2022/04/17 04:49:31;;;;;;;14.10;10.90;;;5.10;99.90;;;;;;5028440;28;20488;-76
2022/04/17 04:52:01;;;;;;;13.45;11.93;;;5.00;99.90;;;;;;5010469;28;20041;-76
2022/04/17 04:54:27;;;;;;;14.30;11.80;;;5.00;99.90;;;;;;5027652;28;20945;-76
2022/04/17 04:56:53;;;;;;;13.68;11.68;;;4.90;99.90;;;;;;5029059;28;20095;-76
2022/04/17 04:59:20;;;;;;;13.73;10.90;;;4.90;99.90;;;;;;5026651;28;20045;-76
2022/04/17 05:01:47;;;;;;;14.18;11.60;;;4.90;99.90;;;;;;5011824;28;20567;-76
2022/04/17 05:04:13;;;;;;;13.85;11.55;;;4.80;99.90;;;;;;5009770;28;20124;-76
2022/04/17 05:06:39;;;;;;;14.68;11.40;;;4.90;99.90;;;;;;5028226;28;20053;-76
2022/04/17 05:09:05;;;;;;;15.25;11.85;;;4.90;99.90;;;;;;5029190;28;20040;-76
2022/04/17 05:11:33;;;;;;;13.95;11.80;;;5.00;99.90;;;;;;5027878;28;20060;-76
2022/04/17 05:13:59;;;;;;;14.73;12.68;;;5.00;99.90;;;;;;5026437;28;20163;-76
2022/04/17 05:16:24;;;;;;;15.25;12.15;;;5.10;99.90;;;;;;5029770;28;20588;-76
2022/04/17 05:19:00;;;;;;;15.45;12.80;;;5.20;99.90;;;;;;5008278;28;20048;-76
2022/04/17 05:21:31;;;;;;;18.15;12.75;;;5.30;99.90;;;;;;5028479;28;20087;-76
2022/04/17 05:23:57;;;;;;;15.93;13.13;;;5.30;99.90;;;;;;5028538;28;20044;-76
2022/04/17 05:26:23;;;;;;;15.27;13.02;;;5.50;99.90;;;;;;5028082;28;20045;-76
2022/04/17 05:28:50;;;;;;;16.67;13.23;;;5.50;99.90;;;;;;5028724;28;20045;-76
2022/04/17 05:31:16;;;;;;;17.70;13.17;;;5.60;99.90;;;;;;5008485;28;20045;-76
2022/04/17 05:33:41;;;;;;;16.45;13.10;;;5.70;99.90;;;;;;5028564;28;20392;-76
2022/04/17 05:36:08;;;;;;;17.42;13.35;;;5.70;99.90;;;;;;5011175;28;20049;-76
2022/04/17 05:38:33;;;;;;;15.90;13.23;;;5.80;99.90;;;;;;5026965;28;20061;-76
2022/04/17 05:40:59;;;;;;;17.20;13.35;;;5.90;99.90;;;;;;5005251;28;20473;-76
2022/04/17 05:43:25;;;;;;;17.70;13.38;;;5.90;99.90;;;;;;5009869;28;20030;-76
2022/04/17 05:45:52;;;;;;;16.83;13.63;;;6.00;99.90;;;;;;5025046;28;20038;-76
2022/04/17 05:48:17;;;;;;;17.10;13.68;;;6.10;99.90;;;;;;5020824;28;20038;-76
2022/04/17 05:50:44;;;;;;;14.23;12.77;;;6.20;99.90;;;;;;5007823;28;20111;-76
2022/04/17 05:53:10;;;;;;;17.70;14.40;;;6.30;99.90;;;;;;5024326;28;20378;-76
2022/04/17 05:55:39;;;;;;;16.00;13.43;;;6.40;99.90;;;;;;5003573;28;20567;-76
2022/04/17 05:58:05;;;;;;;16.00;13.40;;;6.50;99.90;;;;;;5020102;28;20296;-76
2022/04/17 06:00:30;;;;;;;16.65;13.18;;;6.60;99.90;;;;;;5025876;28;20539;-76
2022/04/17 06:02:56;;;;;;;16.95;13.55;;;6.60;99.90;;;;;;5007012;28;20038;-76
2022/04/17 06:05:22;;;;;;;15.70;13.70;;;6.80;99.90;;;;;;5010348;28;20049;-76
2022/04/17 06:07:48;;;;;;;16.10;13.93;;;6.80;99.90;;;;;;5006693;28;20555;-76
2022/04/17 06:10:34;;;;;;;16.85;13.57;;;6.90;99.90;;;;;;5023474;28;20464;-76
2022/04/17 06:13:00;;;;;;;15.65;13.32;;;7.00;99.90;;;;;;5002966;28;20099;-76
2022/04/17 06:15:25;;;;;;;17.48;13.45;;;7.10;99.90;;;;;;5009960;28;20053;-76
2022/04/17 06:17:51;;;;;;;16.98;14.35;;;7.10;99.90;;;;;;5025883;28;20539;-76
2022/04/17 06:20:17;;;;;;;16.70;12.95;;;7.20;99.90;;;;;;5005187;28;20632;-76
2022/04/17 06:22:42;;;;;;;15.80;13.82;;;7.30;99.90;;;;;;5026380;28;20034;-76
2022/04/17 06:25:10;;;;;;;14.68;13.05;;;7.40;99.90;;;;;;5028104;28;20048;-73
2022/04/17 06:27:41;;;;;;;16.65;13.35;;;7.40;99.90;;;;;;5009828;28;20042;-79
2022/04/17 06:30:11;;;;;;;16.10;13.55;;;7.60;99.90;;;;;;5025546;28;20096;-76
2022/04/17 06:32:40;;;;;;;14.98;13.23;;;7.70;99.90;;;;;;5009980;28;20045;-77
2022/04/17 06:35:07;;;;;;;20.98;13.88;;;7.80;99.90;;;;;;5006653;28;20095;-85
2022/04/17 06:37:47;;;;;;;15.77;12.88;;;7.80;99.80;;;;;;5025464;28;20183;-78
2022/04/17 06:40:21;;;;;;;17.50;13.38;;;8.00;99.10;;;;;;5007367;28;20046;-82
2022/04/17 06:42:48;;;;;;;15.50;12.90;;;8.00;98.90;;;;;;5026214;28;20481;-78
2022/04/17 06:45:15;;;;;;;15.60;13.35;;;8.10;98.50;;;;;;5015796;28;20550;-87
2022/04/17 06:47:40;;;;;;;16.33;13.75;;;8.10;99.20;;;;;;5012682;28;20098;-78
2022/04/17 06:50:06;;;;;;;16.00;13.38;;;8.20;99.20;;;;;;5028740;28;20065;-82
2022/04/17 06:52:33;;;;;;;15.80;13.27;;;8.30;98.60;;;;;;5029681;28;20045;-77
2022/04/17 06:54:58;;;;;;;16.35;12.85;;;8.40;97.20;;;;;;5014799;28;20049;-79
2022/04/17 06:57:29;;;;;;;17.73;13.20;;;8.40;95.80;;;;;;5012758;28;20033;-76
2022/04/17 06:59:54;;;;;;;17.20;13.55;;;8.50;95.10;;;;;;5011713;28;20057;-78
2022/04/17 07:02:20;;;;;;;16.25;13.40;;;8.60;95.10;;;;;;5010972;28;20095;-80
2022/04/17 07:04:45;;;;;;;15.65;12.77;;;8.60;95.10;;;;;;5029761;28;20052;-79
2022/04/17 07:07:11;;;;;;;14.73;12.50;;;8.70;93.50;;;;;;5011884;28;20030;-79
2022/04/17 07:09:36;;;;;;;14.68;12.50;;;8.80;92.70;;;;;;5014371;28;20043;-80
2022/04/17 07:12:02;;;;;;;15.90;12.73;;;8.90;92.70;;;;;;5043605;28;20439;-78
2022/04/17 07:14:28;;;;;;;14.60;12.18;;;9.00;93.10;;;;;;5043171;28;20077;-77
2022/04/17 07:16:55;;;;;;;15.48;12.25;;;9.10;92.30;;;;;;5013383;28;20046;-77
2022/04/17 07:19:21;;;;;;;15.57;12.27;;;9.20;92.10;;;;;;5031475;28;20417;-75
2022/04/17 07:21:47;;;;;;;13.68;12.00;;;9.30;91.80;;;;;;5012334;28;20053;-75
2022/04/17 07:24:12;;;;;;;14.60;11.65;;;9.40;91.30;;;;;;5030461;28;20056;-75
2022/04/17 07:26:38;;;;;;;13.93;11.73;;;9.50;90.80;;;;;;5013021;28;20041;-75
2022/04/17 07:29:04;;;;;;;14.40;11.55;;;9.60;87.70;;;;;;5011648;28;20049;-75
2022/04/17 07:31:31;;;;;;;16.30;11.93;;;9.60;86.10;;;;;;5030994;28;20171;-75
2022/04/17 07:33:58;;;;;;;13.13;10.93;;;9.70;86.20;;;;;;5030899;28;20041;-76
2022/04/17 07:36:26;;;;;;;14.38;11.25;;;9.80;84.50;;;;;;5031090;28;20468;-77
2022/04/17 07:38:52;;;;;;;13.73;10.98;;;9.90;83.20;;;;;;5041107;28;20178;-77
2022/04/17 07:41:18;;;;;;;13.10;10.57;;;10.00;83.60;;;;;;5018710;28;20052;-77
2022/04/17 07:43:43;;;;;;;12.68;10.35;;;10.10;82.80;;;;;;5019041;28;20053;-78
2022/04/17 07:46:09;;;;;;;13.00;10.82;;;10.20;81.10;;;;;;5025119;28;20396;-85
2022/04/17 07:48:34;;;;;;;13.05;10.55;;;10.30;80.30;;;;;;5002294;28;20105;-80
2022/04/17 07:51:03;;;;;;;14.82;10.63;;;10.30;79.20;;;;;;4994257;28;20085;-78
2022/04/17 07:53:28;;;;;;;13.32;10.50;;;10.40;76.80;;;;;;5011235;28;20049;-78
2022/04/17 07:55:54;;;;;;;11.93;9.57;;;10.50;75.00;;;;;;5001598;28;20060;-78
2022/04/17 07:58:34;;;;;;;11.88;9.95;;;10.50;74.50;;;;;;5048336;28;20041;-77
2022/04/17 08:01:10;;;;;;;14.38;10.32;;;10.60;73.70;;;;;;5031113;28;20052;-78
2022/04/17 08:06:09;;;;;;;11.77;9.90;;;10.90;73.80;;;;;;5032280;28;20132;-77
2022/04/17 08:08:37;;;;;;;13.10;9.88;;;10.90;70.50;;;;;;5048376;28;20041;-79
2022/04/17 08:11:07;;;;;;;12.23;9.93;;;11.00;69.80;;;;;;5022518;28;20049;-78
2022/04/17 08:13:34;;;;;;;12.88;9.57;;;11.10;69.10;;;;;;5050849;28;20037;-80
2022/04/17 08:16:00;;;;;;;12.00;9.53;;;11.10;68.10;;;;;;5046221;28;20044;-80
2022/04/17 08:18:26;;;;;;;10.63;9.02;;;11.20;68.00;;;;;;5016415;28;20049;-77
2022/04/17 08:20:52;;;;;;;10.80;8.77;;;11.30;68.70;;;;;;5017847;28;20045;-77
2022/04/17 08:23:18;;;;;;;12.40;7.95;;;11.40;68.70;;;;;;5020938;28;20041;-79
2022/04/17 08:25:44;;;;;;;12.05;8.23;;;11.50;65.90;;;;;;5030939;28;20316;-77
2022/04/17 08:28:10;;;;;;;10.35;8.00;;;11.60;65.10;;;;;;5022321;28;20132;-79
2022/04/17 08:30:37;;;;;;;10.15;7.85;;;11.60;64.40;;;;;;5050734;28;20688;-81
2022/04/17 08:33:05;;;;;;;10.23;7.80;;;11.70;63.90;;;;;;5014009;28;20057;-75
2022/04/17 08:35:31;;;;;;;10.63;7.68;;;11.80;63.20;;;;;;5014203;28;20512;-75
2022/04/17 08:38:00;;;;;;;11.23;7.95;;;11.90;62.80;;;;;;5015729;28;20049;-77
2022/04/17 08:40:27;;;;;;;10.05;7.80;;;11.90;62.50;;;;;;5010110;28;20111;-77
2022/04/17 08:42:53;;;;;;;8.95;6.80;;;12.10;62.10;;;;;;5028524;28;20053;-85
2022/04/17 08:45:19;;;;;;;10.53;7.67;;;12.10;61.60;;;;;;5030374;28;20045;-78
2022/04/17 08:47:45;;;;;;;10.07;7.70;;;12.20;61.20;;;;;;5048732;28;20072;-78
2022/04/17 08:50:13;;;;;;;10.85;8.60;;;12.20;61.60;;;;;;5038142;28;20111;-78
2022/04/17 08:52:41;;;;;;;10.77;7.20;;;12.30;61.20;;;;;;5011209;28;20124;-78
2022/04/17 08:55:07;;;;;;;;;;;12.40;61.30;;;;;;5044565;28;20099;-78
2022/04/17 08:57:35;;;;;;;9.77;7.10;;;12.40;60.20;;;;;;5032707;28;19929;-78
2022/04/17 09:00:08;;;;;;;8.35;6.35;;;12.50;59.90;;;;;;5048499;28;20045;-78
2022/04/17 09:02:35;;;;;;;10.13;6.72;;;12.50;58.80;;;;;;5049555;28;20041;-78
2022/04/17 09:05:05;;;;;;;11.07;7.00;;;12.60;58.40;;;;;;5044490;28;20513;-78
2022/04/17 09:08:03;;;;;;;9.60;7.05;;;12.60;58.70;;;;;;5011716;28;20083;-77
2022/04/17 09:10:33;;;;;;;7.97;6.25;;;12.70;58.50;;;;;;5008769;28;20488;-78
2022/04/17 09:13:00;;;;;;;7.60;6.05;;;12.70;58.30;;;;;;5043620;28;20052;-78
2022/04/17 09:15:34;;;;;;;8.70;5.95;;;12.90;58.50;;;;;;5029824;28;20072;-78
2022/04/17 09:18:00;;;;;;;7.65;6.15;;;12.90;57.90;;;;;;4990876;28;20044;-78
2022/04/17 09:20:27;;;;;;;8.45;6.60;;;13.00;58.10;;;;;;5005107;28;20119;-78
2022/04/17 09:22:55;;;;;;;7.22;6.05;;;13.00;57.60;;;;;;5011887;28;20037;-78
2022/04/17 09:25:28;;;;;;;9.32;6.13;;;13.00;57.20;;;;;;5011808;28;20139;-78
2022/04/17 09:28:01;;;;;;;9.90;6.57;;;13.10;57.10;;;;;;5010111;28;20512;-78
2022/04/17 09:30:30;;;;;;;7.68;5.60;;;13.20;56.90;;;;;;4990718;28;20141;-78
2022/04/17 09:32:56;;;;;;;8.55;6.53;;;13.30;55.40;;;;;;4992494;28;20056;-78
2022/04/17 09:35:26;;;;;;;9.77;6.93;;;13.40;55.80;;;;;;5003443;28;20042;-78
2022/04/17 09:37:56;;;;;;;8.77;6.70;;;13.50;56.80;;;;;;5027445;28;20396;-78
2022/04/17 09:40:23;;;;;;;10.90;6.75;;;13.50;56.80;;;;;;5028731;28;20038;-78
2022/04/17 09:42:49;;;;;;;9.25;6.28;;;13.60;56.10;;;;;;5029832;28;20374;-78
2022/04/17 09:45:15;;;;;;;9.80;6.45;;;13.50;55.50;;;;;;5010671;28;20091;-78
2022/04/17 09:47:40;;;;;;;9.57;6.72;;;13.60;55.30;;;;;;5011100;28;20041;-78
2022/04/17 09:50:08;;;;;;;9.48;6.13;;;13.60;54.80;;;;;;5029290;28;20110;-78
2022/04/17 09:52:45;;;;;;;8.93;6.53;;;13.80;54.70;;;;;;5011178;28;20133;-77
2022/04/17 09:55:12;;;;;;;9.75;6.13;;;13.80;54.50;;;;;;5029309;28;20060;-78
2022/04/17 09:57:40;;;;;;;8.50;6.18;;;13.90;54.10;;;;;;5037609;28;20167;-77
2022/04/17 10:00:15;;;;;;;10.65;6.55;;;13.90;54.10;;;;;;5028289;28;20048;-78
2022/04/17 10:02:43;;;;;;;10.52;6.90;;;14.00;52.60;;;;;;5029079;28;20060;-78
2022/04/17 10:05:11;;;;;;;9.57;6.65;;;13.90;53.60;;;;;;5028048;28;20042;-78
2022/04/17 10:07:43;;;;;;;8.32;6.57;;;14.00;53.90;;;;;;5044888;28;20049;-78
2022/04/17 10:10:11;;;;;;;8.60;6.10;;;14.10;53.30;;;;;;5030598;28;20053;-77
2022/04/17 10:12:39;;;;;;;7.63;6.22;;;14.20;53.40;;;;;;5030776;28;20053;-78
2022/04/17 10:15:07;;;;;;;10.18;6.35;;;14.30;53.40;;;;;;5049044;28;20524;-78
2022/04/17 10:17:34;;;;;;;7.55;5.75;;;14.40;53.60;;;;;;5024923;28;20164;-78
2022/04/17 10:20:08;;;;;;;;;;;14.50;53.70;;;;;;5028547;28;20037;-78
2022/04/17 10:22:35;;;;;;;8.63;5.65;;;14.50;54.10;;;;;;5010929;28;19921;-78
2022/04/17 10:25:03;;;;;;;7.43;5.78;;;14.50;52.80;;;;;;5011244;28;20473;-78
2022/04/17 10:27:35;;;;;;;8.13;6.25;;;14.60;52.10;;;;;;5026317;28;20038;-77
2022/04/17 10:30:10;;;;;;;8.52;5.40;;;14.60;51.70;;;;;;5047661;28;20044;-78
2022/04/17 10:33:09;;;;;;;8.07;5.97;;;14.70;50.80;;;;;;5049301;28;20377;-77
2022/04/17 10:35:58;;;;;;;8.57;5.60;;;14.70;49.90;;;;;;5048298;28;20045;-77
2022/04/17 10:38:25;;;;;;;8.00;5.40;;;14.80;49.80;;;;;;5020591;28;20053;-77
2022/04/17 10:41:03;;;;;;;7.20;5.20;;;14.90;49.80;;;;;;5020465;28;20452;-78
2022/04/17 10:43:33;;;;;;;8.13;5.97;;;15.00;49.20;;;;;;5030567;28;20609;-78
2022/04/17 10:46:20;;;;;;;8.48;5.38;;;15.10;49.10;;;;;;5032462;28;20045;-77
2022/04/17 10:48:57;;;;;;;7.20;5.97;;;15.20;48.40;;;;;;5013641;28;20465;-78
2022/04/17 10:51:30;;;;;;;8.55;6.07;;;15.20;49.00;;;;;;5015190;28;20485;-78
2022/04/17 10:54:10;;;;;;;7.97;6.50;;;15.30;49.60;;;;;;5033021;28;20069;-77
2022/04/17 10:56:40;;;;;;;8.70;6.70;;;15.40;49.70;;;;;;5031339;28;20045;-78
2022/04/17 10:59:16;;;;;;;7.82;6.38;;;15.40;49.10;;;;;;5015129;28;20609;-77
2022/04/17 11:01:44;;;;;;;9.13;6.40;;;15.50;48.60;;;;;;5046082;28;20044;-78
2022/04/17 11:04:17;;;;;;;7.82;6.60;;;15.50;49.00;;;;;;5016092;28;20037;-78
2022/04/17 11:06:43;;;;;;;9.13;6.90;;;15.60;48.80;;;;;;5031027;28;20056;-78
2022/04/17 11:09:25;;;;;;;10.13;6.32;;;15.70;49.40;;;;;;5031449;28;20076;-78
2022/04/17 11:11:54;;;;;;;9.52;7.13;;;15.80;48.10;;;;;;5013648;28;20049;-78
2022/04/17 11:14:25;;;;;;;10.35;7.40;;;15.80;48.70;;;;;;5013958;28;20136;-78
2022/04/17 11:16:53;;;;;;;9.88;7.10;;;15.80;47.50;;;;;;5020856;28;20511;-78
2022/04/17 11:19:23;;;;;;;10.88;6.88;;;15.70;47.50;;;;;;5051997;28;20368;-78
2022/04/17 11:21:54;;;;;;;9.18;6.22;;;15.80;48.50;;;;;;5026073;28;20092;-78
2022/04/17 11:24:21;;;;;;;7.15;5.88;;;15.90;48.50;;;;;;5031444;28;20119;-78
2022/04/17 11:26:52;;;;;;;8.63;6.10;;;16.00;47.70;;;;;;5032021;28;20554;-78
2022/04/17 11:29:50;;;;;;;7.82;6.10;;;16.10;47.20;;;;;;5031207;28;20552;-78
2022/04/17 11:32:16;;;;;;;8.20;6.15;;;16.20;47.40;;;;;;5012577;28;20060;-78
2022/04/17 11:34:42;;;;;;;8.88;5.88;;;16.30;47.70;;;;;;5012425;28;20405;-78
2022/04/17 11:37:09;;;;;;;9.23;6.63;;;16.40;47.80;;;;;;5029547;28;20041;-78
2022/04/17 11:39:36;;;;;;;9.48;6.68;;;16.50;46.70;;;;;;5052227;28;20346;-78
2022/04/17 11:42:03;;;;;;;10.52;7.45;;;16.50;45.70;;;;;;5034163;28;20378;-78
2022/04/17 11:44:29;;;;;;;;;;;16.60;46.20;;;;;;5048385;28;20041;-78
2022/04/17 11:46:55;;;;;;;9.57;7.03;;;16.60;47.50;;;;;;5011990;28;19921;-78
2022/04/17 11:49:21;;;;;;;8.75;6.82;;;16.50;45.80;;;;;;5031465;28;20540;-77
2022/04/17 11:51:46;;;;;;;9.13;6.78;;;16.50;45.60;;;;;;5031623;28;20128;-78
2022/04/17 11:54:31;;;;;;;9.57;7.35;;;16.50;46.20;;;;;;5030756;28;20400;-78
2022/04/17 11:56:56;;;;;;;8.23;6.63;;;16.60;46.00;;;;;;5014432;28;20127;-78
2022/04/17 11:59:23;;;;;;;10.15;7.40;;;16.70;46.00;;;;;;4994657;28;20084;-78
2022/04/17 12:02:08;;;;;;;10.18;7.38;;;16.70;46.10;;;;;;5013486;28;20060;-78
2022/04/17 12:04:34;;;;;;;10.20;7.72;;;16.80;46.30;;;;;;5013490;28;20041;-78
2022/04/17 12:07:00;;;;;;;11.38;6.90;;;16.90;46.10;;;;;;5028856;28;20087;-78
2022/04/17 12:09:26;;;;;;;9.43;7.03;;;16.90;45.80;;;;;;5048751;28;20040;-78
2022/04/17 12:11:51;;;;;;;9.15;7.15;;;16.90;44.70;;;;;;5025870;28;20103;-78
2022/04/17 12:14:30;;;;;;;9.18;7.07;;;17.00;45.40;;;;;;5031289;28;20037;-78
2022/04/17 12:16:56;;;;;;;7.70;6.07;;;17.00;45.70;;;;;;5016244;28;20428;-78
2022/04/17 12:19:22;;;;;;;8.52;6.55;;;17.10;45.80;;;;;;5032311;28;20044;-77
2022/04/17 12:21:48;;;;;;;8.65;6.65;;;17.20;44.90;;;;;;5051448;28;20037;-78
2022/04/17 12:24:14;;;;;;;9.18;6.45;;;17.30;44.10;;;;;;5033291;28;20045;-78
2022/04/17 12:26:41;;;;;;;8.15;5.88;;;17.30;43.70;;;;;;5048191;28;20048;-78
2022/04/17 12:29:07;;;;;;;7.57;5.93;;;17.40;44.00;;;;;;5046134;28;20033;-78
2022/04/17 12:31:36;;;;;;;7.65;5.75;;;17.40;44.20;;;;;;5025350;28;20119;-79
2022/04/17 12:34:19;;;;;;;9.45;7.03;;;17.50;43.80;;;;;;5038844;28;20042;-78
2022/04/17 12:36:46;;;;;;;9.15;6.90;;;17.50;43.30;;;;;;5039333;28;20132;-79
2022/04/17 12:39:12;;;;;;;10.60;6.73;;;17.50;43.20;;;;;;5051627;28;20044;-78
2022/04/17 12:41:51;;;;;;;7.40;6.33;;;17.60;43.10;;;;;;5032902;28;20296;-78
2022/04/17 12:44:32;;;;;;;9.07;7.00;;;17.60;43.00;;;;;;5034863;28;20405;-78
2022/04/17 12:47:16;;;;;;;9.30;6.95;;;17.60;43.50;;;;;;5013259;28;20051;-78
2022/04/17 12:49:42;;;;;;;11.82;7.22;;;17.70;43.40;;;;;;5051387;28;20053;-78
2022/04/17 12:52:08;;;;;;;9.52;7.38;;;17.70;43.40;;;;;;5015090;28;20060;-78
2022/04/17 12:54:36;;;;;;;10.40;6.70;;;17.80;43.80;;;;;;5030303;28;20049;-78
2022/04/17 12:57:02;;;;;;;;;;;17.90;44.10;;;;;;5015227;28;20534;-78
2022/04/17 12:59:39;;;;;;;9.00;7.05;;;18.00;44.20;;;;;;5032701;28;19921;-78
2022/04/17 13:02:31;;;;;;;8.52;6.70;;;18.00;43.50;;;;;;5032029;28;20056;-78
2022/04/17 13:04:59;;;;;;;9.50;7.10;;;18.00;42.90;;;;;;5044883;28;20049;-78